createdAt,value
2023-05-02T00:01:07.775Z,10.69
2023-05-02T00:12:22.198Z,11.58
2023-05-02T00:17:22.263Z,11.02
2023-05-02T00:22:22.065Z,10.68
2023-05-02T00:27:22.044Z,10.49
2023-05-02T00:32:22.003Z,10.41
2023-05-02T00:37:21.881Z,10.42
2023-05-02T00:42:21.820Z,10.46
2023-05-02T00:47:21.772Z,10.52
2023-05-02T00:52:21.658Z,10.57
2023-05-02T00:57:21.659Z,10.62
2023-05-02T01:02:21.597Z,10.67
2023-05-02T01:07:21.474Z,10.71
2023-05-02T01:12:21.386Z,10.71
2023-05-02T01:17:21.453Z,10.69
2023-05-02T01:22:21.291Z,10.63
2023-05-02T01:27:21.230Z,10.56
2023-05-02T01:32:21.151Z,10.48
2023-05-02T01:37:21.121Z,10.41
2023-05-02T01:42:21.027Z,10.37
2023-05-02T01:47:21.038Z,10.36
2023-05-02T01:52:20.861Z,10.36
2023-05-02T01:57:20.826Z,10.37
2023-05-02T02:02:20.752Z,10.36
2023-05-02T02:07:20.736Z,10.33
2023-05-02T02:12:20.614Z,10.28
2023-05-02T02:17:20.558Z,10.22
2023-05-02T02:22:20.479Z,10.18
2023-05-02T02:27:20.463Z,10.15
2023-05-02T02:32:20.388Z,10.15
2023-05-02T02:37:20.312Z,10.16
2023-05-02T02:42:20.204Z,10.18
2023-05-02T02:47:20.155Z,10.24
2023-05-02T02:52:20.142Z,10.31
2023-05-02T02:57:20.038Z,10.37
2023-05-02T03:02:19.964Z,10.44
2023-05-02T03:07:19.874Z,10.52
2023-05-02T03:12:19.844Z,10.61
2023-05-02T03:17:20.436Z,10.71
2023-05-02T03:22:19.708Z,10.80
2023-05-02T03:27:19.641Z,10.87
2023-05-02T03:32:19.557Z,10.94
2023-05-02T03:37:19.500Z,11.02
2023-05-02T03:42:19.429Z,11.10
2023-05-02T03:47:19.371Z,11.17
2023-05-02T03:52:19.271Z,11.24
2023-05-02T03:57:19.217Z,11.31
2023-05-02T04:02:19.266Z,11.37
2023-05-02T04:07:19.114Z,11.43
2023-05-02T04:12:19.018Z,11.49
2023-05-02T04:17:48.184Z,11.52
2023-05-02T04:22:40.418Z,11.52
2023-05-02T04:27:40.343Z,11.52
2023-05-02T04:32:40.347Z,11.53
2023-05-02T04:37:40.207Z,11.56
2023-05-02T04:42:40.178Z,11.59
2023-05-02T04:47:40.189Z,11.63
2023-05-02T04:52:40.011Z,11.66
2023-05-02T04:57:39.948Z,11.68
2023-05-02T05:02:39.932Z,11.69
2023-05-02T05:07:39.759Z,11.70
2023-05-02T05:12:39.734Z,11.72
2023-05-02T05:17:39.753Z,11.74
2023-05-02T05:22:39.618Z,11.75
2023-05-02T05:27:39.511Z,11.77
2023-05-02T05:32:39.527Z,11.78
2023-05-02T05:37:39.414Z,11.80
2023-05-02T05:42:39.438Z,11.83
2023-05-02T05:47:39.395Z,11.84
2023-05-02T05:52:39.203Z,11.83
2023-05-02T05:57:39.127Z,11.82
2023-05-02T06:02:39.240Z,11.81
2023-05-02T06:07:39.004Z,11.82
2023-05-02T06:12:38.933Z,11.86
2023-05-02T06:17:38.939Z,11.94
2023-05-02T06:22:38.796Z,12.02
2023-05-02T06:27:38.725Z,12.07
2023-05-02T06:32:38.713Z,12.13
2023-05-02T06:37:38.601Z,12.19
2023-05-02T06:42:38.570Z,12.24
2023-05-02T06:47:38.539Z,12.26
2023-05-02T06:52:38.404Z,12.26
2023-05-02T06:57:38.297Z,12.28
2023-05-02T07:02:38.379Z,12.31
2023-05-02T07:07:38.163Z,12.37
2023-05-02T07:12:38.126Z,12.48
2023-05-02T07:17:38.061Z,12.69
2023-05-02T07:22:37.969Z,12.97
2023-05-02T07:27:37.937Z,13.20
2023-05-02T07:32:37.948Z,13.47
2023-05-02T07:37:37.824Z,13.91
2023-05-02T07:42:37.798Z,14.56
2023-05-02T07:47:37.759Z,15.22
2023-05-02T07:52:37.644Z,15.50
2023-05-02T07:57:37.539Z,15.47
2023-05-02T08:02:37.609Z,15.48
2023-05-02T08:07:37.540Z,15.93
2023-05-02T08:12:37.320Z,16.67
2023-05-02T08:17:37.283Z,18.44
2023-05-02T08:22:37.196Z,20.24
2023-05-02T08:27:37.114Z,21.09
2023-05-02T08:32:37.152Z,22.26
2023-05-02T08:37:37.007Z,23.46
2023-05-02T08:42:36.949Z,23.73
2023-05-02T08:47:36.919Z,23.45
2023-05-02T08:52:36.794Z,23.21
2023-05-02T08:57:36.788Z,22.91
2023-05-02T09:02:36.715Z,22.90
2023-05-02T09:07:36.917Z,23.52
2023-05-02T09:12:36.528Z,23.58
2023-05-02T09:17:36.553Z,22.64
2023-05-02T09:22:36.421Z,21.37
2023-05-02T09:27:36.358Z,20.24
2023-05-02T09:32:36.347Z,19.56
2023-05-02T09:37:36.259Z,19.31
2023-05-02T09:42:36.139Z,19.41
2023-05-02T09:47:36.099Z,20.08
2023-05-02T09:52:35.988Z,21.15
2023-05-02T09:57:35.935Z,21.72
2023-05-02T10:02:36.117Z,21.72
2023-05-02T10:07:35.784Z,21.67
2023-05-02T10:12:35.713Z,21.58
2023-05-02T10:17:35.738Z,21.43
2023-05-02T10:22:35.589Z,21.37
2023-05-02T10:27:35.569Z,21.51
2023-05-02T10:32:35.525Z,21.78
2023-05-02T10:37:35.431Z,21.73
2023-05-02T10:42:35.396Z,21.24
2023-05-02T10:47:35.321Z,20.69
2023-05-02T10:52:35.191Z,20.33
2023-05-02T10:57:35.171Z,20.14
2023-05-02T11:02:35.175Z,20.15
2023-05-02T11:07:35.003Z,20.47
2023-05-02T11:12:34.946Z,20.77
2023-05-02T11:17:34.972Z,20.96
2023-05-02T11:22:35.161Z,21.39
2023-05-02T11:27:34.734Z,21.81
2023-05-02T11:32:34.714Z,22.03
2023-05-02T11:37:34.633Z,22.20
2023-05-02T11:42:34.542Z,22.29
2023-05-02T11:47:34.575Z,21.94
2023-05-02T11:52:34.445Z,21.42
2023-05-02T11:57:34.333Z,21.68
2023-05-02T12:02:34.347Z,22.27
2023-05-02T12:07:34.232Z,22.41
2023-05-02T12:12:34.123Z,22.81
2023-05-02T12:17:34.082Z,24.34
2023-05-02T12:22:34.007Z,25.57
2023-05-02T12:27:33.934Z,25.89
2023-05-02T12:32:33.923Z,25.92
2023-05-02T12:37:33.840Z,25.51
2023-05-02T12:42:33.720Z,24.75
2023-05-02T12:47:33.714Z,23.96
2023-05-02T12:52:33.650Z,23.23
2023-05-02T12:57:33.527Z,22.69
2023-05-02T13:02:33.514Z,22.60
2023-05-02T13:07:33.410Z,22.64
2023-05-02T13:12:33.317Z,22.34
2023-05-02T13:17:33.474Z,21.87
2023-05-02T13:22:33.237Z,21.39
2023-05-02T13:27:33.120Z,20.94
2023-05-02T13:32:33.151Z,20.69
2023-05-02T13:37:33.035Z,20.61
2023-05-02T13:42:32.922Z,20.56
2023-05-02T13:47:32.944Z,20.62
2023-05-02T13:52:32.823Z,20.61
2023-05-02T13:57:32.738Z,20.47
2023-05-02T14:02:32.723Z,20.25
2023-05-02T14:07:32.647Z,20.05
2023-05-02T14:12:32.557Z,19.88
2023-05-02T14:17:32.554Z,19.62
2023-05-02T14:22:32.504Z,19.31
2023-05-02T14:27:32.336Z,19.16
2023-05-02T14:32:32.298Z,19.35
2023-05-02T14:37:32.232Z,20.04
2023-05-02T14:42:32.129Z,20.93
2023-05-02T14:47:32.247Z,21.52
2023-05-02T14:52:32.064Z,21.49
2023-05-02T14:57:32.047Z,21.10
2023-05-02T15:02:31.965Z,20.96
2023-05-02T15:07:31.952Z,21.18
2023-05-02T15:12:31.740Z,21.44
2023-05-02T15:17:31.688Z,21.45
2023-05-02T15:22:31.603Z,21.21
2023-05-02T15:27:31.547Z,20.85
2023-05-02T15:32:31.521Z,20.39
2023-05-02T15:37:31.421Z,19.90
2023-05-02T15:42:31.400Z,19.68
2023-05-02T15:47:31.403Z,19.74
2023-05-02T15:52:31.285Z,19.94
2023-05-02T15:57:31.150Z,20.26
2023-05-02T16:02:31.113Z,20.61
2023-05-02T16:07:31.064Z,20.82
2023-05-02T16:12:31.234Z,20.84
2023-05-02T16:17:30.894Z,20.61
2023-05-02T16:22:30.830Z,20.11
2023-05-02T16:27:30.757Z,19.61
2023-05-02T16:32:30.886Z,19.23
2023-05-02T16:37:30.618Z,18.89
2023-05-02T16:42:30.556Z,18.60
2023-05-02T16:47:30.500Z,18.39
2023-05-02T16:52:30.702Z,18.25
2023-05-02T16:57:30.357Z,18.04
2023-05-02T17:02:30.371Z,17.78
2023-05-02T17:07:30.306Z,17.57
2023-05-02T17:12:30.156Z,17.42
2023-05-02T17:17:30.182Z,17.28
2023-05-02T17:22:30.033Z,17.14
2023-05-02T17:27:30.729Z,16.96
2023-05-02T17:32:29.965Z,16.73
2023-05-02T17:37:29.821Z,16.48
2023-05-02T17:42:29.736Z,16.21
2023-05-02T17:47:29.808Z,15.96
2023-05-02T17:52:29.713Z,15.74
2023-05-02T17:57:29.614Z,15.76
2023-05-02T18:02:29.623Z,16.06
2023-05-02T18:07:29.448Z,16.38
2023-05-02T18:12:29.383Z,16.55
2023-05-02T18:17:29.403Z,16.51
2023-05-02T18:22:29.232Z,16.19
2023-05-02T18:27:29.198Z,15.67
2023-05-02T18:32:29.144Z,15.10
2023-05-02T18:37:29.078Z,14.54
2023-05-02T18:42:29.017Z,14.03
2023-05-02T18:47:28.967Z,13.57
2023-05-02T18:52:28.851Z,13.18
2023-05-02T18:57:28.748Z,12.85
2023-05-02T19:02:28.774Z,12.55
2023-05-02T19:07:28.651Z,12.27
2023-05-02T19:12:28.605Z,11.99
2023-05-02T19:17:28.610Z,11.70
2023-05-02T19:22:28.451Z,11.42
2023-05-02T19:27:28.360Z,11.16
2023-05-02T19:32:28.326Z,10.94
2023-05-02T19:37:28.294Z,10.75
2023-05-02T19:42:28.192Z,10.60
2023-05-02T19:47:28.178Z,10.46
2023-05-02T19:52:28.052Z,10.33
2023-05-02T19:57:27.977Z,10.22
2023-05-02T20:02:28.061Z,10.11
2023-05-02T20:07:27.858Z,10.00
2023-05-02T20:12:27.766Z,9.89
2023-05-02T20:17:27.827Z,9.79
2023-05-02T20:22:27.670Z,9.69
2023-05-02T20:27:27.546Z,9.60
2023-05-02T20:32:27.562Z,9.52
2023-05-02T20:37:27.450Z,9.46
2023-05-02T20:42:27.425Z,9.41
2023-05-02T20:47:27.333Z,9.39
2023-05-02T20:52:27.246Z,9.39
2023-05-02T20:57:27.230Z,9.41
2023-05-02T21:02:27.137Z,9.43
2023-05-02T21:07:27.059Z,9.45
2023-05-02T21:12:27.016Z,9.46
2023-05-02T21:17:26.911Z,9.46
2023-05-02T21:22:26.904Z,9.44
2023-05-02T21:27:26.809Z,9.41
2023-05-02T21:32:26.774Z,9.38
2023-05-02T21:37:26.644Z,9.34
2023-05-02T21:42:26.592Z,9.30
2023-05-02T21:47:26.538Z,9.26
2023-05-02T21:52:26.417Z,9.22
2023-05-02T21:57:26.354Z,9.18
2023-05-02T22:02:26.389Z,9.14
2023-05-02T22:07:26.231Z,9.09
2023-05-02T22:12:26.179Z,9.04
2023-05-02T22:17:27.126Z,8.98
2023-05-02T22:22:26.062Z,8.92
2023-05-02T22:27:25.964Z,8.86
2023-05-02T22:32:26.622Z,8.81
2023-05-02T22:37:25.831Z,8.75
2023-05-02T22:42:25.787Z,8.70
2023-05-02T22:47:25.740Z,8.66
2023-05-02T22:52:25.684Z,8.61
2023-05-02T22:57:25.585Z,8.57
2023-05-02T23:02:25.599Z,8.52
2023-05-02T23:07:25.446Z,8.49
2023-05-02T23:12:26.237Z,8.46
2023-05-02T23:17:25.329Z,8.43
2023-05-02T23:22:25.290Z,8.40
2023-05-02T23:27:25.188Z,8.36
2023-05-02T23:32:25.100Z,8.31
2023-05-02T23:37:25.053Z,8.26
2023-05-02T23:42:25.004Z,8.18
2023-05-02T23:47:24.941Z,8.10
2023-05-02T23:52:24.847Z,8.03
2023-05-02T23:57:24.791Z,7.97
